sensor_id;sensor_type;location;lat;lon;timestamp;P1;durP1;ratioP1;P2;durP2;ratioP2
11964;SDS011;6042;41.326;19.826;2024-01-30T00:01:23;9.37;;;6.80;;
11964;SDS011;6042;41.326;19.826;2024-01-30T00:03:52;10.77;;;5.57;;
11964;SDS011;6042;41.326;19.826;2024-01-30T00:06:22;10.17;;;6.90;;
11964;SDS011;6042;41.326;19.826;2024-01-30T00:08:51;12.93;;;6.70;;
11964;SDS011;6042;41.326;19.826;2024-01-30T00:11:20;11.97;;;9.20;;
11964;SDS011;6042;41.326;19.826;2024-01-30T00:13:48;18.00;;;10.30;;
11964;SDS011;6042;41.326;19.826;2024-01-30T00:16:20;13.93;;;9.03;;
11964;SDS011;6042;41.326;19.826;2024-01-30T00:18:51;16.90;;;10.03;;
11964;SDS011;6042;41.326;19.826;2024-01-30T00:21:20;8.67;;;6.33;;
11964;SDS011;6042;41.326;19.826;2024-01-30T00:23:52;14.13;;;10.37;;
11964;SDS011;6042;41.326;19.826;2024-01-30T00:26:21;14.03;;;10.17;;
11964;SDS011;6042;41.326;19.826;2024-01-30T00:28:49;15.53;;;10.33;;
11964;SDS011;6042;41.326;19.826;2024-01-30T00:31:20;12.47;;;9.80;;
11964;SDS011;6042;41.326;19.826;2024-01-30T00:33:50;14.53;;;10.97;;
11964;SDS011;6042;41.326;19.826;2024-01-30T00:36:19;14.90;;;6.87;;
11964;SDS011;6042;41.326;19.826;2024-01-30T00:38:58;10.30;;;6.03;;
11964;SDS011;6042;41.326;19.826;2024-01-30T00:41:27;10.37;;;6.07;;
11964;SDS011;6042;41.326;19.826;2024-01-30T00:43:55;9.93;;;6.50;;
11964;SDS011;6042;41.326;19.826;2024-01-30T00:46:24;13.00;;;7.17;;
11964;SDS011;6042;41.326;19.826;2024-01-30T00:48:53;13.27;;;9.33;;
11964;SDS011;6042;41.326;19.826;2024-01-30T00:51:22;20.00;;;10.50;;
11964;SDS011;6042;41.326;19.826;2024-01-30T00:53:50;13.43;;;10.00;;
11964;SDS011;6042;41.326;19.826;2024-01-30T00:56:20;15.30;;;9.97;;
11964;SDS011;6042;41.326;19.826;2024-01-30T00:58:50;17.07;;;9.97;;
11964;SDS011;6042;41.326;19.826;2024-01-30T01:01:19;14.57;;;9.63;;
11964;SDS011;6042;41.326;19.826;2024-01-30T01:03:48;15.83;;;9.47;;
11964;SDS011;6042;41.326;19.826;2024-01-30T01:06:16;17.13;;;9.83;;
11964;SDS011;6042;41.326;19.826;2024-01-30T01:08:45;13.23;;;10.10;;
11964;SDS011;6042;41.326;19.826;2024-01-30T01:11:14;14.37;;;10.00;;
11964;SDS011;6042;41.326;19.826;2024-01-30T01:13:44;11.93;;;9.53;;
11964;SDS011;6042;41.326;19.826;2024-01-30T01:16:13;13.57;;;9.63;;
11964;SDS011;6042;41.326;19.826;2024-01-30T01:18:42;18.70;;;11.07;;
11964;SDS011;6042;41.326;19.826;2024-01-30T01:21:11;14.77;;;9.67;;
11964;SDS011;6042;41.326;19.826;2024-01-30T01:23:40;14.20;;;10.50;;
11964;SDS011;6042;41.326;19.826;2024-01-30T01:26:08;15.17;;;10.23;;
11964;SDS011;6042;41.326;19.826;2024-01-30T01:28:39;13.60;;;9.50;;
11964;SDS011;6042;41.326;19.826;2024-01-30T01:31:10;15.77;;;10.10;;
11964;SDS011;6042;41.326;19.826;2024-01-30T01:33:38;15.27;;;11.13;;
11964;SDS011;6042;41.326;19.826;2024-01-30T01:36:10;12.27;;;9.33;;
11964;SDS011;6042;41.326;19.826;2024-01-30T01:38:38;9.57;;;8.27;;
11964;SDS011;6042;41.326;19.826;2024-01-30T01:41:07;12.10;;;8.27;;
11964;SDS011;6042;41.326;19.826;2024-01-30T01:43:35;10.47;;;8.33;;
11964;SDS011;6042;41.326;19.826;2024-01-30T01:46:05;13.57;;;8.23;;
11964;SDS011;6042;41.326;19.826;2024-01-30T01:48:36;11.13;;;9.47;;
11964;SDS011;6042;41.326;19.826;2024-01-30T01:51:07;13.67;;;9.43;;
11964;SDS011;6042;41.326;19.826;2024-01-30T01:53:36;14.40;;;9.90;;
11964;SDS011;6042;41.326;19.826;2024-01-30T01:56:05;14.70;;;9.57;;
11964;SDS011;6042;41.326;19.826;2024-01-30T01:58:34;14.43;;;9.50;;
11964;SDS011;6042;41.326;19.826;2024-01-30T02:01:04;13.43;;;9.97;;
11964;SDS011;6042;41.326;19.826;2024-01-30T02:03:33;11.03;;;9.67;;
11964;SDS011;6042;41.326;19.826;2024-01-30T02:06:06;14.33;;;10.43;;
11964;SDS011;6042;41.326;19.826;2024-01-30T02:08:37;11.80;;;9.20;;
11964;SDS011;6042;41.326;19.826;2024-01-30T02:11:05;16.23;;;9.63;;
11964;SDS011;6042;41.326;19.826;2024-01-30T02:13:34;12.37;;;10.13;;
11964;SDS011;6042;41.326;19.826;2024-01-30T02:16:03;13.03;;;9.83;;
11964;SDS011;6042;41.326;19.826;2024-01-30T02:18:37;14.23;;;10.50;;
11964;SDS011;6042;41.326;19.826;2024-01-30T02:21:11;11.63;;;9.17;;
11964;SDS011;6042;41.326;19.826;2024-01-30T02:23:40;11.80;;;9.37;;
11964;SDS011;6042;41.326;19.826;2024-01-30T02:26:13;10.70;;;7.53;;
11964;SDS011;6042;41.326;19.826;2024-01-30T02:28:42;11.43;;;7.90;;
11964;SDS011;6042;41.326;19.826;2024-01-30T02:31:11;11.93;;;7.40;;
11964;SDS011;6042;41.326;19.826;2024-01-30T02:33:40;11.63;;;8.60;;
11964;SDS011;6042;41.326;19.826;2024-01-30T02:36:08;11.57;;;8.97;;
11964;SDS011;6042;41.326;19.826;2024-01-30T02:38:38;10.23;;;7.93;;
11964;SDS011;6042;41.326;19.826;2024-01-30T02:41:07;8.73;;;7.33;;
11964;SDS011;6042;41.326;19.826;2024-01-30T02:43:36;9.53;;;8.00;;
11964;SDS011;6042;41.326;19.826;2024-01-30T02:46:04;10.63;;;8.40;;
11964;SDS011;6042;41.326;19.826;2024-01-30T02:48:33;10.03;;;7.53;;
11964;SDS011;6042;41.326;19.826;2024-01-30T02:51:02;9.40;;;7.87;;
11964;SDS011;6042;41.326;19.826;2024-01-30T02:53:30;9.30;;;7.43;;
11964;SDS011;6042;41.326;19.826;2024-01-30T02:56:02;9.93;;;8.07;;
11964;SDS011;6042;41.326;19.826;2024-01-30T02:58:32;9.07;;;8.00;;
11964;SDS011;6042;41.326;19.826;2024-01-30T03:01:01;8.97;;;7.37;;
11964;SDS011;6042;41.326;19.826;2024-01-30T03:03:30;11.00;;;7.87;;
11964;SDS011;6042;41.326;19.826;2024-01-30T03:05:58;8.23;;;7.10;;
11964;SDS011;6042;41.326;19.826;2024-01-30T03:08:29;10.53;;;7.50;;
11964;SDS011;6042;41.326;19.826;2024-01-30T03:10:57;10.33;;;7.37;;
11964;SDS011;6042;41.326;19.826;2024-01-30T03:13:27;10.53;;;7.80;;
11964;SDS011;6042;41.326;19.826;2024-01-30T03:15:56;9.00;;;7.17;;
11964;SDS011;6042;41.326;19.826;2024-01-30T03:18:25;9.10;;;7.37;;
11964;SDS011;6042;41.326;19.826;2024-01-30T03:20:53;8.77;;;7.40;;
11964;SDS011;6042;41.326;19.826;2024-01-30T03:23:22;11.63;;;7.57;;
11964;SDS011;6042;41.326;19.826;2024-01-30T03:25:51;8.47;;;7.47;;
11964;SDS011;6042;41.326;19.826;2024-01-30T03:28:19;8.90;;;7.70;;
11964;SDS011;6042;41.326;19.826;2024-01-30T03:30:49;10.43;;;8.00;;
11964;SDS011;6042;41.326;19.826;2024-01-30T03:33:20;10.20;;;7.77;;
11964;SDS011;6042;41.326;19.826;2024-01-30T03:35:49;8.80;;;7.53;;
11964;SDS011;6042;41.326;19.826;2024-01-30T03:38:17;8.23;;;7.30;;
11964;SDS011;6042;41.326;19.826;2024-01-30T03:40:46;11.00;;;8.20;;
11964;SDS011;6042;41.326;19.826;2024-01-30T03:43:15;13.77;;;8.40;;
11964;SDS011;6042;41.326;19.826;2024-01-30T03:45:43;12.30;;;8.17;;
11964;SDS011;6042;41.326;19.826;2024-01-30T03:48:14;10.70;;;8.03;;
11964;SDS011;6042;41.326;19.826;2024-01-30T03:50:42;9.50;;;7.87;;
11964;SDS011;6042;41.326;19.826;2024-01-30T03:53:11;10.40;;;8.50;;
11964;SDS011;6042;41.326;19.826;2024-01-30T03:55:40;8.70;;;6.87;;
11964;SDS011;6042;41.326;19.826;2024-01-30T03:58:08;7.83;;;6.90;;
11964;SDS011;6042;41.326;19.826;2024-01-30T04:00:37;8.67;;;6.90;;
11964;SDS011;6042;41.326;19.826;2024-01-30T04:03:07;11.67;;;8.10;;
11964;SDS011;6042;41.326;19.826;2024-01-30T04:05:38;9.10;;;7.50;;
11964;SDS011;6042;41.326;19.826;2024-01-30T04:08:06;11.67;;;7.63;;
11964;SDS011;6042;41.326;19.826;2024-01-30T04:10:37;8.80;;;7.30;;
11964;SDS011;6042;41.326;19.826;2024-01-30T04:13:05;9.07;;;7.20;;
11964;SDS011;6042;41.326;19.826;2024-01-30T04:15:37;7.90;;;6.70;;
11964;SDS011;6042;41.326;19.826;2024-01-30T04:18:05;10.30;;;7.80;;
11964;SDS011;6042;41.326;19.826;2024-01-30T04:20:34;9.57;;;8.17;;
11964;SDS011;6042;41.326;19.826;2024-01-30T04:23:04;10.50;;;8.47;;
11964;SDS011;6042;41.326;19.826;2024-01-30T04:25:34;8.90;;;7.50;;
11964;SDS011;6042;41.326;19.826;2024-01-30T04:28:05;10.30;;;8.30;;
11964;SDS011;6042;41.326;19.826;2024-01-30T04:30:33;9.70;;;7.87;;
11964;SDS011;6042;41.326;19.826;2024-01-30T04:33:02;9.67;;;7.47;;
11964;SDS011;6042;41.326;19.826;2024-01-30T04:35:31;10.60;;;7.33;;
11964;SDS011;6042;41.326;19.826;2024-01-30T04:38:11;8.47;;;7.53;;
11964;SDS011;6042;41.326;19.826;2024-01-30T04:40:43;8.03;;;7.13;;
11964;SDS011;6042;41.326;19.826;2024-01-30T04:43:12;7.93;;;6.90;;
11964;SDS011;6042;41.326;19.826;2024-01-30T04:45:41;8.87;;;7.30;;
11964;SDS011;6042;41.326;19.826;2024-01-30T04:48:10;8.40;;;6.53;;
11964;SDS011;6042;41.326;19.826;2024-01-30T04:50:39;8.37;;;7.20;;
11964;SDS011;6042;41.326;19.826;2024-01-30T04:53:13;8.50;;;6.93;;
11964;SDS011;6042;41.326;19.826;2024-01-30T04:55:41;9.23;;;7.10;;
11964;SDS011;6042;41.326;19.826;2024-01-30T04:58:10;8.00;;;7.20;;
11964;SDS011;6042;41.326;19.826;2024-01-30T05:00:39;7.60;;;6.80;;
11964;SDS011;6042;41.326;19.826;2024-01-30T05:03:07;7.93;;;6.43;;
11964;SDS011;6042;41.326;19.826;2024-01-30T05:05:36;9.37;;;6.87;;
11964;SDS011;6042;41.326;19.826;2024-01-30T05:08:05;9.33;;;6.87;;
11964;SDS011;6042;41.326;19.826;2024-01-30T05:10:35;9.77;;;8.00;;
11964;SDS011;6042;41.326;19.826;2024-01-30T05:13:04;8.63;;;6.93;;
11964;SDS011;6042;41.326;19.826;2024-01-30T05:15:33;11.83;;;6.80;;
11964;SDS011;6042;41.326;19.826;2024-01-30T05:18:04;9.97;;;7.03;;
11964;SDS011;6042;41.326;19.826;2024-01-30T05:20:34;10.73;;;7.13;;
11964;SDS011;6042;41.326;19.826;2024-01-30T05:23:03;8.13;;;6.70;;
11964;SDS011;6042;41.326;19.826;2024-01-30T05:25:31;9.67;;;7.73;;
11964;SDS011;6042;41.326;19.826;2024-01-30T05:28:01;8.73;;;7.53;;
11964;SDS011;6042;41.326;19.826;2024-01-30T05:30:30;9.00;;;7.07;;
11964;SDS011;6042;41.326;19.826;2024-01-30T05:32:59;12.63;;;7.77;;
11964;SDS011;6042;41.326;19.826;2024-01-30T05:35:28;9.20;;;6.43;;
11964;SDS011;6042;41.326;19.826;2024-01-30T05:37:57;11.40;;;6.90;;
11964;SDS011;6042;41.326;19.826;2024-01-30T05:40:26;15.13;;;7.07;;
11964;SDS011;6042;41.326;19.826;2024-01-30T05:42:55;9.10;;;6.60;;
11964;SDS011;6042;41.326;19.826;2024-01-30T05:45:26;8.13;;;7.07;;
11964;SDS011;6042;41.326;19.826;2024-01-30T05:47:55;9.47;;;7.37;;
11964;SDS011;6042;41.326;19.826;2024-01-30T05:50:24;10.60;;;6.93;;
11964;SDS011;6042;41.326;19.826;2024-01-30T05:52:53;10.77;;;6.90;;
11964;SDS011;6042;41.326;19.826;2024-01-30T05:55:22;11.53;;;7.07;;
11964;SDS011;6042;41.326;19.826;2024-01-30T05:57:51;10.23;;;7.20;;
11964;SDS011;6042;41.326;19.826;2024-01-30T06:00:20;10.47;;;6.40;;
11964;SDS011;6042;41.326;19.826;2024-01-30T06:02:50;11.27;;;6.70;;
11964;SDS011;6042;41.326;19.826;2024-01-30T06:05:19;9.13;;;6.90;;
11964;SDS011;6042;41.326;19.826;2024-01-30T06:07:48;11.07;;;7.97;;
11964;SDS011;6042;41.326;19.826;2024-01-30T06:10:16;14.17;;;7.83;;
11964;SDS011;6042;41.326;19.826;2024-01-30T06:12:45;8.87;;;6.80;;
11964;SDS011;6042;41.326;19.826;2024-01-30T06:15:15;8.60;;;7.37;;
11964;SDS011;6042;41.326;19.826;2024-01-30T06:17:43;10.00;;;7.70;;
11964;SDS011;6042;41.326;19.826;2024-01-30T06:20:14;12.80;;;7.70;;
11964;SDS011;6042;41.326;19.826;2024-01-30T06:22:44;15.37;;;7.87;;
11964;SDS011;6042;41.326;19.826;2024-01-30T06:25:17;13.20;;;8.57;;
11964;SDS011;6042;41.326;19.826;2024-01-30T06:27:46;9.97;;;7.77;;
11964;SDS011;6042;41.326;19.826;2024-01-30T06:30:20;10.03;;;6.80;;
11964;SDS011;6042;41.326;19.826;2024-01-30T06:32:49;12.13;;;8.00;;
11964;SDS011;6042;41.326;19.826;2024-01-30T06:35:19;11.80;;;8.60;;
11964;SDS011;6042;41.326;19.826;2024-01-30T06:37:48;12.47;;;9.07;;
11964;SDS011;6042;41.326;19.826;2024-01-30T06:40:17;14.00;;;10.70;;
11964;SDS011;6042;41.326;19.826;2024-01-30T06:42:48;20.83;;;11.23;;
11964;SDS011;6042;41.326;19.826;2024-01-30T06:45:18;23.27;;;11.23;;
11964;SDS011;6042;41.326;19.826;2024-01-30T06:47:54;14.40;;;11.20;;
11964;SDS011;6042;41.326;19.826;2024-01-30T06:50:25;13.60;;;9.17;;
11964;SDS011;6042;41.326;19.826;2024-01-30T06:52:58;16.80;;;9.80;;
11964;SDS011;6042;41.326;19.826;2024-01-30T06:55:27;13.80;;;9.53;;
11964;SDS011;6042;41.326;19.826;2024-01-30T06:57:59;11.93;;;9.87;;
11964;SDS011;6042;41.326;19.826;2024-01-30T07:00:33;15.03;;;10.03;;
11964;SDS011;6042;41.326;19.826;2024-01-30T07:03:03;17.63;;;10.70;;
11964;SDS011;6042;41.326;19.826;2024-01-30T07:05:33;16.37;;;11.53;;
11964;SDS011;6042;41.326;19.826;2024-01-30T07:08:03;14.37;;;10.53;;
11964;SDS011;6042;41.326;19.826;2024-01-30T07:10:32;16.53;;;12.00;;
11964;SDS011;6042;41.326;19.826;2024-01-30T07:13:10;16.30;;;12.33;;
11964;SDS011;6042;41.326;19.826;2024-01-30T07:15:39;18.27;;;11.50;;
11964;SDS011;6042;41.326;19.826;2024-01-30T07:18:08;17.03;;;13.00;;
11964;SDS011;6042;41.326;19.826;2024-01-30T07:20:39;22.90;;;14.20;;
11964;SDS011;6042;41.326;19.826;2024-01-30T07:23:13;16.63;;;12.43;;
11964;SDS011;6042;41.326;19.826;2024-01-30T07:25:43;20.57;;;13.30;;
11964;SDS011;6042;41.326;19.826;2024-01-30T07:28:17;20.50;;;11.97;;
11964;SDS011;6042;41.326;19.826;2024-01-30T07:30:46;20.80;;;11.17;;
11964;SDS011;6042;41.326;19.826;2024-01-30T07:33:15;11.10;;;8.47;;
11964;SDS011;6042;41.326;19.826;2024-01-30T07:35:46;18.77;;;10.43;;
11964;SDS011;6042;41.326;19.826;2024-01-30T07:38:18;9.13;;;6.17;;
11964;SDS011;6042;41.326;19.826;2024-01-30T07:40:47;9.97;;;6.90;;
11964;SDS011;6042;41.326;19.826;2024-01-30T07:43:16;8.60;;;5.63;;
11964;SDS011;6042;41.326;19.826;2024-01-30T07:45:47;5.47;;;4.30;;
11964;SDS011;6042;41.326;19.826;2024-01-30T07:48:15;10.97;;;6.07;;
11964;SDS011;6042;41.326;19.826;2024-01-30T07:50:59;10.37;;;6.53;;
11964;SDS011;6042;41.326;19.826;2024-01-30T07:53:30;13.17;;;7.53;;
11964;SDS011;6042;41.326;19.826;2024-01-30T07:55:59;13.90;;;7.77;;
11964;SDS011;6042;41.326;19.826;2024-01-30T07:58:28;14.10;;;7.63;;
11964;SDS011;6042;41.326;19.826;2024-01-30T08:00:57;9.77;;;6.13;;
11964;SDS011;6042;41.326;19.826;2024-01-30T08:03:28;11.43;;;5.70;;
11964;SDS011;6042;41.326;19.826;2024-01-30T08:06:01;10.83;;;5.93;;
11964;SDS011;6042;41.326;19.826;2024-01-30T08:08:31;9.60;;;4.93;;
11964;SDS011;6042;41.326;19.826;2024-01-30T08:11:01;9.60;;;5.30;;
11964;SDS011;6042;41.326;19.826;2024-01-30T08:13:36;8.50;;;4.70;;
11964;SDS011;6042;41.326;19.826;2024-01-30T08:16:05;8.27;;;4.90;;
11964;SDS011;6042;41.326;19.826;2024-01-30T08:18:38;13.53;;;5.70;;
11964;SDS011;6042;41.326;19.826;2024-01-30T08:21:14;9.07;;;4.83;;
11964;SDS011;6042;41.326;19.826;2024-01-30T08:23:43;4.53;;;3.77;;
11964;SDS011;6042;41.326;19.826;2024-01-30T08:26:12;8.73;;;4.20;;
11964;SDS011;6042;41.326;19.826;2024-01-30T08:28:40;21.20;;;6.37;;
11964;SDS011;6042;41.326;19.826;2024-01-30T08:31:10;15.53;;;6.37;;
11964;SDS011;6042;41.326;19.826;2024-01-30T08:33:39;9.63;;;5.73;;
11964;SDS011;6042;41.326;19.826;2024-01-30T08:36:10;9.13;;;6.00;;
11964;SDS011;6042;41.326;19.826;2024-01-30T08:38:40;7.63;;;4.27;;
11964;SDS011;6042;41.326;19.826;2024-01-30T08:41:09;8.00;;;4.63;;
11964;SDS011;6042;41.326;19.826;2024-01-30T08:43:37;6.03;;;4.63;;
11964;SDS011;6042;41.326;19.826;2024-01-30T08:46:06;6.97;;;4.80;;
11964;SDS011;6042;41.326;19.826;2024-01-30T08:48:35;8.10;;;5.40;;
11964;SDS011;6042;41.326;19.826;2024-01-30T08:51:04;9.73;;;5.93;;
11964;SDS011;6042;41.326;19.826;2024-01-30T08:53:35;9.13;;;5.20;;
11964;SDS011;6042;41.326;19.826;2024-01-30T08:56:06;8.03;;;5.90;;
11964;SDS011;6042;41.326;19.826;2024-01-30T08:58:35;7.90;;;6.00;;
11964;SDS011;6042;41.326;19.826;2024-01-30T09:01:03;9.63;;;5.77;;
11964;SDS011;6042;41.326;19.826;2024-01-30T09:03:33;7.93;;;5.60;;
11964;SDS011;6042;41.326;19.826;2024-01-30T09:06:03;10.53;;;5.37;;
11964;SDS011;6042;41.326;19.826;2024-01-30T09:08:34;9.33;;;6.10;;
11964;SDS011;6042;41.326;19.826;2024-01-30T09:11:09;9.97;;;6.97;;
11964;SDS011;6042;41.326;19.826;2024-01-30T09:13:39;13.47;;;7.97;;
11964;SDS011;6042;41.326;19.826;2024-01-30T09:16:08;17.23;;;9.07;;
11964;SDS011;6042;41.326;19.826;2024-01-30T09:18:37;19.90;;;11.50;;
11964;SDS011;6042;41.326;19.826;2024-01-30T09:21:06;23.07;;;12.97;;
11964;SDS011;6042;41.326;19.826;2024-01-30T09:23:35;22.30;;;15.27;;
11964;SDS011;6042;41.326;19.826;2024-01-30T09:26:03;24.53;;;16.00;;
11964;SDS011;6042;41.326;19.826;2024-01-30T09:28:34;23.93;;;16.63;;
11964;SDS011;6042;41.326;19.826;2024-01-30T09:31:02;29.13;;;16.93;;
11964;SDS011;6042;41.326;19.826;2024-01-30T09:33:31;25.03;;;17.03;;
11964;SDS011;6042;41.326;19.826;2024-01-30T09:36:00;22.90;;;16.47;;
11964;SDS011;6042;41.326;19.826;2024-01-30T09:38:29;22.63;;;14.60;;
11964;SDS011;6042;41.326;19.826;2024-01-30T09:40:57;21.70;;;14.90;;
11964;SDS011;6042;41.326;19.826;2024-01-30T09:43:32;29.00;;;12.90;;
11964;SDS011;6042;41.326;19.826;2024-01-30T09:46:03;24.07;;;12.87;;
11964;SDS011;6042;41.326;19.826;2024-01-30T09:48:37;25.47;;;15.03;;
11964;SDS011;6042;41.326;19.826;2024-01-30T09:51:06;25.57;;;15.20;;
11964;SDS011;6042;41.326;19.826;2024-01-30T09:53:36;25.83;;;14.33;;
11964;SDS011;6042;41.326;19.826;2024-01-30T09:56:06;18.93;;;13.07;;
11964;SDS011;6042;41.326;19.826;2024-01-30T09:58:36;23.40;;;14.37;;
11964;SDS011;6042;41.326;19.826;2024-01-30T10:01:06;26.40;;;14.20;;
11964;SDS011;6042;41.326;19.826;2024-01-30T10:03:35;24.00;;;14.07;;
11964;SDS011;6042;41.326;19.826;2024-01-30T10:06:08;19.00;;;12.13;;
11964;SDS011;6042;41.326;19.826;2024-01-30T10:08:39;21.10;;;12.13;;
11964;SDS011;6042;41.326;19.826;2024-01-30T10:11:08;14.97;;;10.30;;
11964;SDS011;6042;41.326;19.826;2024-01-30T10:13:38;19.40;;;11.60;;
11964;SDS011;6042;41.326;19.826;2024-01-30T10:16:07;10.90;;;8.83;;
11964;SDS011;6042;41.326;19.826;2024-01-30T10:18:36;16.53;;;8.63;;
11964;SDS011;6042;41.326;19.826;2024-01-30T10:21:10;13.30;;;7.10;;
11964;SDS011;6042;41.326;19.826;2024-01-30T10:23:39;9.37;;;5.40;;
11964;SDS011;6042;41.326;19.826;2024-01-30T10:26:08;10.13;;;5.37;;
11964;SDS011;6042;41.326;19.826;2024-01-30T10:28:39;7.87;;;6.03;;
11964;SDS011;6042;41.326;19.826;2024-01-30T10:31:09;10.37;;;6.30;;
11964;SDS011;6042;41.326;19.826;2024-01-30T10:33:38;7.30;;;5.27;;
11964;SDS011;6042;41.326;19.826;2024-01-30T10:36:08;11.13;;;6.27;;
11964;SDS011;6042;41.326;19.826;2024-01-30T10:38:37;7.07;;;5.47;;
11964;SDS011;6042;41.326;19.826;2024-01-30T10:41:10;8.27;;;4.70;;
11964;SDS011;6042;41.326;19.826;2024-01-30T10:43:46;12.37;;;5.40;;
11964;SDS011;6042;41.326;19.826;2024-01-30T10:46:24;6.77;;;4.43;;
11964;SDS011;6042;41.326;19.826;2024-01-30T10:49:02;7.40;;;4.33;;
11964;SDS011;6042;41.326;19.826;2024-01-30T10:51:31;7.47;;;4.90;;
11964;SDS011;6042;41.326;19.826;2024-01-30T10:54:02;9.80;;;4.67;;
11964;SDS011;6042;41.326;19.826;2024-01-30T10:56:33;11.00;;;4.10;;
11964;SDS011;6042;41.326;19.826;2024-01-30T10:59:04;12.50;;;5.93;;
11964;SDS011;6042;41.326;19.826;2024-01-30T11:01:37;8.40;;;4.83;;
11964;SDS011;6042;41.326;19.826;2024-01-30T11:04:06;6.13;;;4.53;;
11964;SDS011;6042;41.326;19.826;2024-01-30T11:06:40;9.67;;;5.47;;
11964;SDS011;6042;41.326;19.826;2024-01-30T11:09:10;7.80;;;4.80;;
11964;SDS011;6042;41.326;19.826;2024-01-30T11:11:49;6.63;;;4.77;;
11964;SDS011;6042;41.326;19.826;2024-01-30T11:14:24;6.00;;;5.07;;
11964;SDS011;6042;41.326;19.826;2024-01-30T11:16:57;11.10;;;5.53;;
11964;SDS011;6042;41.326;19.826;2024-01-30T11:19:26;6.80;;;5.13;;
11964;SDS011;6042;41.326;19.826;2024-01-30T11:21:59;12.50;;;5.20;;
11964;SDS011;6042;41.326;19.826;2024-01-30T11:24:28;7.27;;;4.80;;
11964;SDS011;6042;41.326;19.826;2024-01-30T11:26:57;10.50;;;5.53;;
11964;SDS011;6042;41.326;19.826;2024-01-30T11:29:28;8.27;;;5.80;;
11964;SDS011;6042;41.326;19.826;2024-01-30T11:31:58;7.10;;;5.20;;
11964;SDS011;6042;41.326;19.826;2024-01-30T11:34:27;6.90;;;4.67;;
11964;SDS011;6042;41.326;19.826;2024-01-30T11:36:57;12.33;;;5.73;;
11964;SDS011;6042;41.326;19.826;2024-01-30T11:39:29;9.93;;;6.03;;
11964;SDS011;6042;41.326;19.826;2024-01-30T11:41:58;24.60;;;10.00;;
11964;SDS011;6042;41.326;19.826;2024-01-30T11:44:31;10.20;;;5.47;;
11964;SDS011;6042;41.326;19.826;2024-01-30T11:47:00;8.93;;;5.77;;
11964;SDS011;6042;41.326;19.826;2024-01-30T11:49:30;7.00;;;5.07;;
11964;SDS011;6042;41.326;19.826;2024-01-30T11:51:59;6.50;;;5.20;;
11964;SDS011;6042;41.326;19.826;2024-01-30T11:54:28;7.43;;;5.60;;
11964;SDS011;6042;41.326;19.826;2024-01-30T11:56:57;8.00;;;5.73;;
11964;SDS011;6042;41.326;19.826;2024-01-30T11:59:25;8.17;;;5.50;;
11964;SDS011;6042;41.326;19.826;2024-01-30T12:01:56;8.63;;;6.10;;
11964;SDS011;6042;41.326;19.826;2024-01-30T12:04:27;8.37;;;6.30;;
11964;SDS011;6042;41.326;19.826;2024-01-30T12:06:58;7.57;;;6.37;;
11964;SDS011;6042;41.326;19.826;2024-01-30T12:09:30;8.67;;;6.97;;
11964;SDS011;6042;41.326;19.826;2024-01-30T12:11:58;8.70;;;6.77;;
11964;SDS011;6042;41.326;19.826;2024-01-30T12:14:27;16.67;;;7.13;;
11964;SDS011;6042;41.326;19.826;2024-01-30T12:16:58;15.63;;;8.07;;
11964;SDS011;6042;41.326;19.826;2024-01-30T12:19:27;14.67;;;8.30;;
11964;SDS011;6042;41.326;19.826;2024-01-30T12:21:55;9.57;;;6.73;;
11964;SDS011;6042;41.326;19.826;2024-01-30T12:24:26;12.50;;;8.43;;
11964;SDS011;6042;41.326;19.826;2024-01-30T12:26:59;16.73;;;9.00;;
11964;SDS011;6042;41.326;19.826;2024-01-30T12:29:31;9.33;;;7.53;;
11964;SDS011;6042;41.326;19.826;2024-01-30T12:32:06;10.27;;;6.70;;
11964;SDS011;6042;41.326;19.826;2024-01-30T12:34:39;15.00;;;7.03;;
11964;SDS011;6042;41.326;19.826;2024-01-30T12:37:26;11.30;;;6.87;;
11964;SDS011;6042;41.326;19.826;2024-01-30T12:39:56;9.37;;;6.00;;
11964;SDS011;6042;41.326;19.826;2024-01-30T12:42:26;13.90;;;6.33;;
11964;SDS011;6042;41.326;19.826;2024-01-30T12:44:57;8.00;;;6.17;;
11964;SDS011;6042;41.326;19.826;2024-01-30T12:47:27;10.63;;;6.60;;
11964;SDS011;6042;41.326;19.826;2024-01-30T12:49:56;8.43;;;5.80;;
11964;SDS011;6042;41.326;19.826;2024-01-30T12:52:25;7.43;;;6.13;;
11964;SDS011;6042;41.326;19.826;2024-01-30T12:54:57;12.90;;;5.80;;
11964;SDS011;6042;41.326;19.826;2024-01-30T12:57:26;9.53;;;5.13;;
11964;SDS011;6042;41.326;19.826;2024-01-30T12:59:55;8.87;;;4.20;;
11964;SDS011;6042;41.326;19.826;2024-01-30T13:02:25;5.33;;;4.00;;
11964;SDS011;6042;41.326;19.826;2024-01-30T13:05:04;12.10;;;4.87;;
11964;SDS011;6042;41.326;19.826;2024-01-30T13:07:36;6.33;;;4.20;;
11964;SDS011;6042;41.326;19.826;2024-01-30T13:10:05;4.93;;;4.43;;
11964;SDS011;6042;41.326;19.826;2024-01-30T13:12:34;8.50;;;4.70;;
11964;SDS011;6042;41.326;19.826;2024-01-30T13:15:05;6.63;;;4.43;;
11964;SDS011;6042;41.326;19.826;2024-01-30T13:17:38;7.70;;;4.50;;
11964;SDS011;6042;41.326;19.826;2024-01-30T13:20:08;7.07;;;4.57;;
11964;SDS011;6042;41.326;19.826;2024-01-30T13:22:38;7.07;;;4.70;;
11964;SDS011;6042;41.326;19.826;2024-01-30T13:25:07;6.40;;;5.00;;
11964;SDS011;6042;41.326;19.826;2024-01-30T13:27:37;5.10;;;4.20;;
11964;SDS011;6042;41.326;19.826;2024-01-30T13:30:06;7.50;;;4.00;;
11964;SDS011;6042;41.326;19.826;2024-01-30T13:32:36;7.93;;;4.70;;
11964;SDS011;6042;41.326;19.826;2024-01-30T13:37:56;8.23;;;4.13;;
11964;SDS011;6042;41.326;19.826;2024-01-30T13:40:25;8.60;;;4.43;;
11964;SDS011;6042;41.326;19.826;2024-01-30T13:42:54;6.63;;;4.23;;
11964;SDS011;6042;41.326;19.826;2024-01-30T13:45:24;11.53;;;4.63;;
11964;SDS011;6042;41.326;19.826;2024-01-30T13:47:54;5.20;;;3.77;;
11964;SDS011;6042;41.326;19.826;2024-01-30T13:50:26;6.87;;;4.37;;
11964;SDS011;6042;41.326;19.826;2024-01-30T13:52:55;7.77;;;4.73;;
11964;SDS011;6042;41.326;19.826;2024-01-30T13:55:25;11.70;;;4.67;;
11964;SDS011;6042;41.326;19.826;2024-01-30T13:57:56;9.53;;;4.37;;
11964;SDS011;6042;41.326;19.826;2024-01-30T14:00:25;8.57;;;4.77;;
11964;SDS011;6042;41.326;19.826;2024-01-30T14:02:53;13.73;;;4.53;;
11964;SDS011;6042;41.326;19.826;2024-01-30T14:05:25;9.13;;;4.87;;
11964;SDS011;6042;41.326;19.826;2024-01-30T14:07:55;6.60;;;4.43;;
11964;SDS011;6042;41.326;19.826;2024-01-30T14:10:24;8.30;;;4.53;;
11964;SDS011;6042;41.326;19.826;2024-01-30T14:12:53;8.33;;;4.43;;
11964;SDS011;6042;41.326;19.826;2024-01-30T14:15:24;4.70;;;3.63;;
11964;SDS011;6042;41.326;19.826;2024-01-30T14:17:55;7.63;;;3.67;;
11964;SDS011;6042;41.326;19.826;2024-01-30T14:20:27;4.67;;;3.50;;
11964;SDS011;6042;41.326;19.826;2024-01-30T14:22:57;5.47;;;3.77;;
11964;SDS011;6042;41.326;19.826;2024-01-30T14:25:26;5.30;;;3.40;;
11964;SDS011;6042;41.326;19.826;2024-01-30T14:27:55;7.20;;;3.87;;
11964;SDS011;6042;41.326;19.826;2024-01-30T14:30:24;4.97;;;3.30;;
11964;SDS011;6042;41.326;19.826;2024-01-30T14:32:53;10.30;;;3.87;;
11964;SDS011;6042;41.326;19.826;2024-01-30T14:35:23;5.47;;;3.37;;
11964;SDS011;6042;41.326;19.826;2024-01-30T14:37:53;6.43;;;3.30;;
11964;SDS011;6042;41.326;19.826;2024-01-30T14:40:21;4.37;;;3.83;;
11964;SDS011;6042;41.326;19.826;2024-01-30T14:42:50;7.20;;;4.17;;
11964;SDS011;6042;41.326;19.826;2024-01-30T14:45:21;6.90;;;4.63;;
11964;SDS011;6042;41.326;19.826;2024-01-30T14:47:49;6.97;;;4.60;;
11964;SDS011;6042;41.326;19.826;2024-01-30T14:50:19;7.70;;;4.40;;
11964;SDS011;6042;41.326;19.826;2024-01-30T14:52:48;5.90;;;4.20;;
11964;SDS011;6042;41.326;19.826;2024-01-30T14:55:18;6.37;;;4.07;;
11964;SDS011;6042;41.326;19.826;2024-01-30T14:57:47;8.43;;;4.70;;